Portada
METAR-TAF:

METAR-TAF

Aeroports :

Aeroport Internacional Maiquetía Simón Bolívar

Caracas, Veneçuela

latitud: 10-36N, longitud: 066-59W, altitud: 43 m

Observació

L'informe es va fer fa 52 minuts, a les 00:00 UTC
Vent 6 kt del Sud-Est
Temperatura 26°C
Humitat 84%
Pressió 1014 hPa
Visibilitat 10 km o més
Núvols disperses a una alçada de 1600 ft

METAR: SVMI 170000Z 14006KT 9999 SCT016 26/23 Q1014

Hora: 20:52 (00:52 UTC)

Pronòstic

L'informe es va fer fa 2 hores i 52 minuts, a les 22:00 UTC
Pronòstic vàlid del 17 a les 00 UTC al 18 a les 00 UTC
Vent 6 kt del Est/Nord-Est
Visibilitat 10 km o més
Cel ennuvolat a una alçada de 1300 ft
Evolucionant progressivament
l' 16 a les 04 UTC al 16 a les 08 UTC
Vent 5 kt del Nord-Est
Visibilitat: 9000 m
Cel ennuvolat a una alçada de 1300 ft
plugim

TAF: SVMI 162200Z 1700/1800 07006KT 9999 BKN013 TX33/17Z TN24/08Z BECMG 1604/1608 05005KT 9000 -DZ BKN013

Observacions i pronòstics meteorològics de més de 4000 aeroports (METAR i TAF).

Les estacions disponibles són els punts grocs i vermells al mapa.

Posi el ratolí al punt desitjat per veure el nom de l'estació.

Feu clic per veure les observacions i els pronòstics meteorològics.

Per canviar el mapa: feu clic els botons verds amb una creu de color negre per apropar; al botó verd amb un guió per allunyar la imatge; o en les fletxes verdes per a mapes adjacents.


METAR-TAF: